Terminal Aerodrome Forecast
Issued by NWS Buffalo, NY

Home | Current Version | Previous Version | Text Only | Print | Product List | Glossary On
Versions: 1 2 3 4 5 6 7 8 9 10 11 12 13 14 15 16 17 18 19 20 21 22 23 24 25
000
FTUS41 KBUF 020540
TAFROC
TAF
KROC 020540Z 0206/0306 23004KT 5SM BR FEW250
     FM020800 23003KT 2SM BR BKN005
     FM021300 24005KT P6SM SCT007
     FM021600 28005KT P6SM SCT030
     FM021900 35007KT P6SM SKC=

USA.gov is the U.S. government's official web portal to all federal, state and local government web resources and services.